Time;durP1;ratioP1;P1;durP2;ratioP2;P2;SDS_P1;SDS_P2;PMS_P1;PMS_P2;Temp;Humidity;BMP_temperature;BMP_pressure;BME280_temperature;BME280_humidity;BME280_pressure;Samples;Min_cycle;Max_cycle;Signal;HPM_P1;HPM_P2
2022/03/06 00:02:11;;;;;;;15.43;10.27;;;1.80;99.90;;;;;;4879622;29;20426;-72
2022/03/06 00:04:37;;;;;;;13.18;9.88;;;1.90;99.90;;;;;;4863896;29;20045;-72
2022/03/06 00:07:03;;;;;;;13.73;9.70;;;2.00;99.90;;;;;;4874400;29;20076;-72
2022/03/06 00:09:29;;;;;;;15.07;10.05;;;2.00;99.90;;;;;;4879443;29;20041;-72
2022/03/06 00:11:55;;;;;;;12.65;9.18;;;2.00;99.90;;;;;;4874594;29;20041;-72
2022/03/06 00:14:21;;;;;;;10.43;8.68;;;2.10;99.90;;;;;;4879634;29;20041;-72
2022/03/06 00:16:47;;;;;;;10.93;8.32;;;2.10;99.90;;;;;;4879088;29;20136;-72
2022/03/06 00:19:13;;;;;;;11.80;8.43;;;2.10;99.90;;;;;;4874755;29;20077;-72
2022/03/06 00:21:39;;;;;;;12.27;8.37;;;2.10;99.90;;;;;;4874591;29;20548;-72
2022/03/06 00:24:06;;;;;;;13.15;8.18;;;2.10;99.90;;;;;;4872910;29;20341;-73
2022/03/06 00:26:31;;;;;;;;;;;2.20;99.90;;;;;;4875221;29;20045;-72
2022/03/06 00:28:57;;;;;;;10.82;7.72;;;2.20;99.90;;;;;;4876800;29;19927;-72
2022/03/06 00:31:23;;;;;;;11.63;7.28;;;2.20;99.90;;;;;;4876399;29;20045;-72
2022/03/06 00:33:50;;;;;;;11.57;7.65;;;2.20;99.90;;;;;;4863002;29;20041;-72
2022/03/06 00:36:16;;;;;;;13.55;7.47;;;2.10;99.90;;;;;;4877422;29;20103;-72
2022/03/06 00:38:42;;;;;;;12.15;7.30;;;2.10;99.90;;;;;;4878772;29;20145;-72
2022/03/06 00:41:08;;;;;;;9.00;6.72;;;2.20;99.90;;;;;;4878205;29;20045;-72
2022/03/06 00:43:34;;;;;;;11.43;6.72;;;2.10;99.90;;;;;;4875719;29;20429;-72
2022/03/06 00:45:59;;;;;;;8.33;6.00;;;2.10;99.90;;;;;;4877516;29;20049;-72
2022/03/06 00:48:25;;;;;;;10.10;6.47;;;2.10;99.90;;;;;;4877674;29;20286;-72
2022/03/06 00:50:51;;;;;;;8.20;5.72;;;2.10;99.90;;;;;;4862332;29;20342;-72
2022/03/06 00:53:17;;;;;;;10.45;6.47;;;2.00;99.90;;;;;;4883373;29;20677;-72
2022/03/06 00:55:43;;;;;;;10.77;7.13;;;2.00;99.90;;;;;;4862430;29;20084;-72
2022/03/06 00:58:09;;;;;;;12.50;7.18;;;2.10;99.90;;;;;;4875131;29;20045;-72
2022/03/06 01:00:47;;;;;;;11.82;7.30;;;2.00;99.90;;;;;;4872765;29;20053;-72
2022/03/06 01:03:16;;;;;;;10.52;6.93;;;2.10;99.90;;;;;;4877704;29;20409;-72
2022/03/06 01:05:42;;;;;;;10.38;6.32;;;2.10;99.90;;;;;;4875250;29;20079;-72
2022/03/06 01:08:08;;;;;;;8.52;5.28;;;2.10;99.90;;;;;;4876344;29;20544;-73
2022/03/06 01:10:36;;;;;;;8.52;6.07;;;2.10;99.90;;;;;;4881435;29;20166;-72
2022/03/06 01:13:03;;;;;;;8.20;5.70;;;2.10;99.90;;;;;;4875299;29;20044;-72
2022/03/06 01:15:29;;;;;;;9.55;6.57;;;2.00;99.90;;;;;;4861763;29;20119;-73
2022/03/06 01:17:55;;;;;;;7.88;5.57;;;2.00;99.90;;;;;;4862848;29;20044;-73
2022/03/06 01:20:23;;;;;;;7.90;5.47;;;2.10;99.90;;;;;;4861932;29;20082;-73
2022/03/06 01:22:49;;;;;;;6.35;4.90;;;2.10;99.90;;;;;;4877300;29;20053;-73
2022/03/06 01:25:15;;;;;;;6.55;4.72;;;2.10;99.90;;;;;;4875300;29;20156;-73
2022/03/06 01:27:41;;;;;;;8.45;5.80;;;2.10;99.90;;;;;;4877238;29;20145;-73
2022/03/06 01:30:08;;;;;;;10.77;5.90;;;2.10;99.90;;;;;;4863647;29;20053;-73
2022/03/06 01:32:35;;;;;;;7.88;5.82;;;2.00;99.90;;;;;;4861616;29;20437;-73
2022/03/06 01:35:01;;;;;;;;;;;2.10;99.90;;;;;;4874619;29;20072;-73
2022/03/06 01:37:27;;;;;;;9.90;5.78;;;2.10;99.90;;;;;;4874552;29;19980;-73
2022/03/06 01:39:52;;;;;;;8.80;6.22;;;2.00;99.90;;;;;;4877879;29;20072;-73
2022/03/06 01:42:18;;;;;;;7.57;5.25;;;2.00;99.90;;;;;;4861313;29;20065;-73
2022/03/06 01:44:45;;;;;;;11.93;5.75;;;2.00;99.90;;;;;;4873926;29;20069;-73
2022/03/06 01:47:11;;;;;;;10.00;7.00;;;2.00;99.90;;;;;;4873650;29;20049;-73
2022/03/06 01:49:37;;;;;;;9.55;6.90;;;2.20;99.90;;;;;;4876705;29;20045;-73
2022/03/06 01:52:03;;;;;;;7.93;5.80;;;2.10;99.90;;;;;;4861554;29;20461;-73
2022/03/06 01:54:29;;;;;;;7.43;5.68;;;2.10;99.90;;;;;;4861830;29;20289;-73
2022/03/06 01:56:55;;;;;;;9.80;6.20;;;2.10;99.90;;;;;;4874542;29;20037;-74
2022/03/06 01:59:24;;;;;;;7.78;5.25;;;2.00;99.90;;;;;;4859822;29;20060;-73
2022/03/06 02:01:50;;;;;;;8.73;5.65;;;2.00;99.90;;;;;;4863064;29;20032;-77
2022/03/06 02:04:15;;;;;;;12.38;6.35;;;2.00;99.90;;;;;;4874722;29;21039;-78
2022/03/06 02:06:42;;;;;;;9.43;5.70;;;2.00;99.90;;;;;;4876267;29;20040;-78
2022/03/06 02:09:08;;;;;;;7.60;5.50;;;1.90;99.90;;;;;;4852217;29;20041;-78
2022/03/06 02:11:34;;;;;;;8.55;5.45;;;1.90;99.90;;;;;;4862096;29;20416;-78
2022/03/06 02:14:02;;;;;;;9.93;5.95;;;1.90;99.90;;;;;;4882405;29;20100;-78
2022/03/06 02:16:32;;;;;;;7.43;5.30;;;1.90;99.90;;;;;;4860177;29;20128;-78
2022/03/06 02:18:57;;;;;;;8.98;5.60;;;1.90;99.90;;;;;;4881373;29;20499;-77
2022/03/06 02:21:23;;;;;;;8.17;5.07;;;2.00;99.90;;;;;;4877182;29;20045;-78
2022/03/06 02:23:49;;;;;;;6.43;4.70;;;2.00;99.90;;;;;;4861886;29;20643;-78
2022/03/06 02:26:14;;;;;;;7.30;4.95;;;1.90;99.90;;;;;;4876461;29;20398;-78
2022/03/06 02:28:42;;;;;;;7.20;4.30;;;2.00;99.90;;;;;;4864557;29;20076;-78
2022/03/06 02:31:10;;;;;;;6.70;4.47;;;2.00;99.90;;;;;;4860855;29;20037;-78
2022/03/06 02:33:36;;;;;;;7.18;4.40;;;2.00;99.90;;;;;;4846426;29;20867;-78
2022/03/06 02:36:02;;;;;;;7.03;4.37;;;2.10;99.90;;;;;;4865844;29;20061;-79
2022/03/06 02:38:27;;;;;;;8.73;4.72;;;2.10;99.90;;;;;;4863817;29;20312;-79
2022/03/06 02:40:53;;;;;;;6.18;4.10;;;2.10;99.90;;;;;;4875789;29;20124;-79
2022/03/06 02:43:20;;;;;;;8.93;4.35;;;2.10;99.90;;;;;;4864534;29;20134;-78
2022/03/06 02:45:46;;;;;;;6.72;3.85;;;2.00;99.90;;;;;;4876820;29;20068;-79
2022/03/06 02:48:12;;;;;;;7.43;3.80;;;2.00;99.90;;;;;;4875651;29;20041;-79
2022/03/06 02:50:38;;;;;;;8.10;4.18;;;2.10;99.90;;;;;;4875251;29;20063;-79
2022/03/06 02:53:05;;;;;;;;;;;2.00;99.90;;;;;;4872911;29;20041;-79
2022/03/06 02:55:31;;;;;;;6.45;3.80;;;2.10;99.90;;;;;;4874584;29;19923;-79
2022/03/06 02:57:57;;;;;;;7.70;4.35;;;2.00;99.90;;;;;;4874812;29;20049;-78
2022/03/06 03:00:25;;;;;;;5.60;4.10;;;2.10;99.90;;;;;;4873050;29;20068;-79
2022/03/06 03:02:51;;;;;;;7.60;3.70;;;2.00;99.90;;;;;;4874706;29;20073;-79
2022/03/06 03:05:17;;;;;;;6.93;4.07;;;2.00;99.90;;;;;;4874665;29;20048;-78
2022/03/06 03:07:46;;;;;;;6.68;3.78;;;1.90;99.90;;;;;;4874646;29;20073;-78
2022/03/06 03:10:14;;;;;;;6.25;4.00;;;1.90;99.90;;;;;;4874771;29;20047;-78
2022/03/06 03:12:41;;;;;;;7.50;4.07;;;2.00;99.90;;;;;;4875206;29;20119;-79
2022/03/06 03:15:08;;;;;;;7.15;4.00;;;2.00;99.90;;;;;;4889407;29;20064;-78
2022/03/06 03:17:35;;;;;;;5.95;4.18;;;2.00;99.90;;;;;;4859400;29;20056;-78
2022/03/06 03:20:01;;;;;;;6.30;4.15;;;1.90;99.90;;;;;;4874924;29;20056;-78
2022/03/06 03:22:26;;;;;;;5.05;3.67;;;1.90;99.90;;;;;;4875369;29;20053;-78
2022/03/06 03:24:52;;;;;;;6.65;4.38;;;1.90;99.90;;;;;;4877752;29;20039;-79
2022/03/06 03:27:18;;;;;;;5.70;4.10;;;1.90;99.90;;;;;;4860556;29;20084;-79
2022/03/06 03:29:43;;;;;;;6.23;3.97;;;1.90;99.90;;;;;;4871908;29;20297;-79
2022/03/06 03:32:09;;;;;;;7.90;4.25;;;1.90;99.90;;;;;;4857316;29;20289;-78
2022/03/06 03:34:35;;;;;;;8.32;4.47;;;1.90;99.90;;;;;;4874991;29;20141;-77
2022/03/06 03:37:01;;;;;;;5.93;3.60;;;2.00;99.90;;;;;;4818920;29;20121;-78
2022/03/06 03:39:27;;;;;;;6.95;4.25;;;1.90;99.90;;;;;;4859080;29;20128;-78
2022/03/06 03:41:53;;;;;;;6.22;4.20;;;1.90;99.90;;;;;;4859553;29;20123;-78
2022/03/06 03:44:19;;;;;;;8.15;4.18;;;1.90;99.90;;;;;;4824358;29;20045;-77
2022/03/06 03:46:45;;;;;;;6.95;4.03;;;1.80;99.90;;;;;;4860073;29;20044;-78
2022/03/06 03:49:11;;;;;;;6.57;3.20;;;1.80;99.90;;;;;;4859069;29;20041;-78
2022/03/06 03:51:38;;;;;;;6.32;3.70;;;1.80;99.90;;;;;;4842778;29;20113;-78
2022/03/06 03:54:03;;;;;;;7.18;4.32;;;1.70;99.90;;;;;;4862442;29;20049;-79
2022/03/06 03:56:29;;;;;;;8.95;4.88;;;1.70;99.90;;;;;;4843891;29;20044;-78
2022/03/06 03:58:55;;;;;;;6.70;4.40;;;1.70;99.90;;;;;;4817509;29;20121;-79
2022/03/06 04:01:21;;;;;;;7.33;4.43;;;1.60;99.90;;;;;;4856616;29;20168;-79
2022/03/06 04:03:46;;;;;;;7.55;4.50;;;1.60;99.90;;;;;;4845604;29;20057;-79
2022/03/06 04:06:12;;;;;;;6.93;4.83;;;1.60;99.90;;;;;;4858805;29;20084;-79
2022/03/06 04:08:38;;;;;;;5.25;3.55;;;1.50;99.90;;;;;;4856966;29;20093;-79
2022/03/06 04:11:05;;;;;;;7.85;4.35;;;1.50;99.90;;;;;;4839545;29;20073;-79
2022/03/06 04:13:30;;;;;;;7.20;4.32;;;1.50;99.90;;;;;;4843967;29;20501;-79
2022/03/06 04:15:56;;;;;;;6.47;4.43;;;1.40;99.90;;;;;;4833615;29;20056;-79
2022/03/06 04:18:22;;;;;;;9.57;4.22;;;1.50;99.90;;;;;;4858479;29;20178;-79
2022/03/06 04:20:48;;;;;;;7.32;4.57;;;1.40;99.90;;;;;;4856354;29;20053;-79
2022/03/06 04:23:13;;;;;;;8.30;4.53;;;1.40;99.90;;;;;;4843861;29;20049;-79
2022/03/06 04:25:40;;;;;;;8.75;4.43;;;1.30;99.90;;;;;;4860567;29;20048;-80
2022/03/06 04:28:06;;;;;;;8.55;4.63;;;1.30;99.90;;;;;;4859448;29;20049;-79
2022/03/06 04:30:32;;;;;;;;;;;1.30;99.90;;;;;;4876278;29;20128;-79
2022/03/06 04:32:58;;;;;;;10.32;5.22;;;1.30;99.90;;;;;;4858845;29;20010;-79
2022/03/06 04:35:25;;;;;;;8.25;4.25;;;1.30;99.90;;;;;;4847204;29;20136;-78
2022/03/06 04:37:51;;;;;;;8.48;4.70;;;1.20;99.90;;;;;;4874232;29;20084;-78
2022/03/06 04:40:16;;;;;;;7.63;4.68;;;1.20;99.90;;;;;;4874237;29;20049;-77
2022/03/06 04:42:42;;;;;;;7.60;4.72;;;1.10;99.90;;;;;;4857059;29;20049;-78
2022/03/06 04:45:09;;;;;;;8.32;4.78;;;1.10;99.90;;;;;;4876468;29;20049;-78
2022/03/06 04:47:34;;;;;;;7.20;4.20;;;1.10;99.90;;;;;;4874439;29;20037;-78
2022/03/06 04:50:01;;;;;;;7.45;4.30;;;1.00;99.90;;;;;;4874288;29;20469;-78
2022/03/06 04:52:26;;;;;;;6.15;3.80;;;1.00;99.90;;;;;;4880601;29;20087;-78
2022/03/06 04:54:52;;;;;;;6.60;4.60;;;0.90;99.90;;;;;;4858915;29;20359;-78
2022/03/06 04:57:18;;;;;;;7.95;4.22;;;1.00;99.90;;;;;;4872357;29;20080;-79
2022/03/06 04:59:44;;;;;;;6.63;4.28;;;0.90;99.90;;;;;;4863928;29;20075;-78
2022/03/06 05:02:10;;;;;;;7.80;4.32;;;0.80;99.90;;;;;;4870074;29;20471;-79
2022/03/06 05:04:36;;;;;;;9.48;4.18;;;0.90;99.90;;;;;;4879168;29;20053;-79
2022/03/06 05:07:02;;;;;;;7.00;4.20;;;0.80;99.90;;;;;;4875342;29;20129;-79
2022/03/06 05:09:27;;;;;;;4.90;3.17;;;0.80;99.90;;;;;;4858066;29;20057;-79
2022/03/06 05:11:53;;;;;;;5.50;3.60;;;0.70;99.90;;;;;;4871547;29;20109;-79
2022/03/06 05:14:19;;;;;;;7.32;3.83;;;0.70;99.90;;;;;;4873865;29;20293;-79
2022/03/06 05:16:45;;;;;;;6.25;3.70;;;0.60;99.90;;;;;;4875392;29;20053;-79
2022/03/06 05:19:10;;;;;;;7.20;3.87;;;0.60;99.90;;;;;;4874526;29;20478;-79
2022/03/06 05:21:36;;;;;;;8.27;3.95;;;0.60;99.90;;;;;;4876938;29;20372;-79
2022/03/06 05:24:03;;;;;;;5.85;3.70;;;0.70;99.90;;;;;;4872859;29;20096;-79
2022/03/06 05:26:29;;;;;;;9.45;3.92;;;0.60;99.90;;;;;;4862166;29;20037;-78
2022/03/06 05:28:55;;;;;;;7.70;3.50;;;0.60;99.90;;;;;;4877297;29;20624;-79
2022/03/06 05:31:21;;;;;;;6.07;3.45;;;0.60;99.90;;;;;;4877369;29;20072;-79
2022/03/06 05:33:46;;;;;;;5.32;3.60;;;0.70;99.90;;;;;;4861569;29;20080;-79
2022/03/06 05:36:12;;;;;;;5.63;3.13;;;0.60;99.90;;;;;;4861611;29;20128;-78
2022/03/06 05:38:38;;;;;;;6.15;3.78;;;0.60;99.90;;;;;;4861318;29;20045;-78
2022/03/06 05:41:04;;;;;;;5.70;3.33;;;0.60;99.90;;;;;;4876949;29;20801;-79
2022/03/06 05:43:29;;;;;;;5.68;3.38;;;0.50;99.90;;;;;;4871624;29;20048;-79
2022/03/06 05:45:55;;;;;;;5.40;3.47;;;0.60;99.90;;;;;;4861768;29;20553;-79
2022/03/06 05:48:21;;;;;;;4.60;3.28;;;0.60;99.90;;;;;;4860109;29;20727;-73
2022/03/06 05:50:47;;;;;;;6.90;3.50;;;0.60;99.90;;;;;;4873871;29;20200;-73
2022/03/06 05:53:13;;;;;;;5.75;3.33;;;0.50;99.90;;;;;;4875539;29;20127;-74
2022/03/06 05:55:39;;;;;;;7.35;3.75;;;0.50;99.90;;;;;;4876834;29;20085;-73
2022/03/06 05:58:05;;;;;;;6.00;3.50;;;0.50;99.90;;;;;;4876157;29;20072;-73
2022/03/06 06:00:31;;;;;;;6.13;3.28;;;0.40;99.90;;;;;;4876390;29;20109;-73
2022/03/06 06:02:56;;;;;;;6.50;3.72;;;0.40;99.90;;;;;;4845397;29;20056;-72
2022/03/06 06:05:23;;;;;;;6.72;4.22;;;0.30;99.90;;;;;;4880738;29;20045;-71
2022/03/06 06:07:52;;;;;;;6.03;4.00;;;0.40;99.90;;;;;;4861956;29;20067;-72
2022/03/06 06:10:18;;;;;;;6.50;3.80;;;0.30;99.90;;;;;;4875991;29;20045;-73
2022/03/06 06:12:44;;;;;;;;;;;0.40;99.90;;;;;;4876599;29;20048;-72
2022/03/06 06:15:10;;;;;;;5.93;3.40;;;0.40;99.90;;;;;;4857753;29;19920;-72
2022/03/06 06:17:37;;;;;;;5.13;2.90;;;0.40;99.90;;;;;;4875271;29;20053;-72
2022/03/06 06:20:07;;;;;;;4.63;3.22;;;0.30;99.90;;;;;;4862227;29;20109;-72
2022/03/06 06:22:34;;;;;;;6.75;3.88;;;0.30;99.90;;;;;;4877410;29;20048;-72
2022/03/06 06:25:00;;;;;;;9.93;3.85;;;0.30;99.90;;;;;;4879130;29;20052;-72
2022/03/06 06:27:27;;;;;;;6.05;3.50;;;0.20;99.90;;;;;;4879897;29;20035;-72
2022/03/06 06:29:53;;;;;;;5.10;3.40;;;0.20;99.90;;;;;;4877296;29;20052;-73
2022/03/06 06:32:19;;;;;;;4.85;3.22;;;0.20;99.90;;;;;;4859186;29;20150;-73
2022/03/06 06:34:45;;;;;;;4.82;3.35;;;0.20;99.90;;;;;;4845349;29;20093;-74
2022/03/06 06:37:11;;;;;;;4.82;3.08;;;0.20;99.90;;;;;;4862274;29;20060;-74
2022/03/06 06:39:37;;;;;;;;;;;0.20;99.90;;;;;;4844799;29;20124;-73
2022/03/06 06:42:03;;;;;;;5.70;3.05;;;0.30;99.90;;;;;;4856955;29;20019;-74
2022/03/06 06:44:30;;;;;;;5.00;2.97;;;0.30;99.90;;;;;;4823352;29;20048;-73
2022/03/06 06:47:02;;;;;;;5.78;2.92;;;0.40;99.90;;;;;;4842927;29;20181;-73
2022/03/06 06:49:28;;;;;;;5.35;2.80;;;0.40;99.90;;;;;;4857073;29;20195;-73
2022/03/06 06:51:54;;;;;;;4.55;2.70;;;0.40;99.90;;;;;;4858291;29;20473;-73
2022/03/06 06:54:19;;;;;;;4.50;2.67;;;0.40;99.90;;;;;;4856879;29;20140;-73
2022/03/06 06:56:45;;;;;;;4.47;2.50;;;0.50;99.90;;;;;;4857081;29;20051;-72
2022/03/06 06:59:11;;;;;;;3.08;2.25;;;0.50;99.90;;;;;;4860793;29;20125;-72
2022/03/06 07:01:37;;;;;;;3.10;2.20;;;0.50;99.90;;;;;;4858995;29;20163;-72
2022/03/06 07:04:03;;;;;;;3.20;2.20;;;0.60;99.90;;;;;;4846183;29;20059;-73
2022/03/06 07:06:28;;;;;;;2.80;2.30;;;0.60;99.90;;;;;;4859843;29;20033;-71
2022/03/06 07:08:54;;;;;;;2.85;2.05;;;0.60;99.90;;;;;;4843217;29;20064;-72
2022/03/06 07:11:20;;;;;;;5.10;2.43;;;0.70;99.90;;;;;;4859286;29;20132;-73
2022/03/06 07:13:45;;;;;;;4.23;2.20;;;0.80;99.90;;;;;;4857902;29;20302;-72
2022/03/06 07:16:11;;;;;;;3.33;2.13;;;0.90;99.90;;;;;;4859570;29;20301;-72
2022/03/06 07:18:37;;;;;;;5.72;2.13;;;1.00;99.90;;;;;;4856432;29;20056;-72
2022/03/06 07:21:02;;;;;;;5.57;2.30;;;1.10;99.90;;;;;;4841685;29;20037;-73
2022/03/06 07:23:31;;;;;;;3.40;2.00;;;1.20;99.90;;;;;;4859223;29;20535;-72
2022/03/06 07:25:58;;;;;;;3.33;1.88;;;1.30;99.90;;;;;;4861255;29;20753;-72
2022/03/06 07:28:24;;;;;;;4.75;2.70;;;1.40;99.90;;;;;;4859639;29;20052;-72
2022/03/06 07:30:49;;;;;;;3.53;1.77;;;1.40;99.90;;;;;;4858956;29;20044;-73
2022/03/06 07:33:15;;;;;;;2.60;1.85;;;1.50;99.90;;;;;;4858005;29;20081;-73
2022/03/06 07:35:41;;;;;;;3.83;2.15;;;1.60;99.90;;;;;;4862555;29;20420;-73
2022/03/06 07:38:07;;;;;;;2.78;2.00;;;1.70;99.90;;;;;;4858686;29;20051;-74
2022/03/06 07:40:33;;;;;;;2.70;1.90;;;1.80;99.90;;;;;;4874518;29;20133;-74
2022/03/06 07:42:58;;;;;;;3.45;1.70;;;1.90;99.90;;;;;;4871039;29;20060;-73
2022/03/06 07:45:24;;;;;;;3.33;2.00;;;2.00;99.90;;;;;;4875389;29;20053;-74
2022/03/06 07:47:50;;;;;;;2.75;1.80;;;2.10;99.90;;;;;;4873844;29;20313;-74
2022/03/06 07:50:16;;;;;;;3.00;1.85;;;2.30;99.90;;;;;;4874736;29;20044;-74
2022/03/06 07:52:42;;;;;;;4.20;1.80;;;2.30;99.90;;;;;;4860865;29;20047;-74
2022/03/06 07:55:14;;;;;;;3.03;1.80;;;2.50;99.90;;;;;;4861572;29;20532;-74
2022/03/06 07:57:40;;;;;;;6.10;2.17;;;2.60;99.90;;;;;;4873930;29;20052;-74
2022/03/06 08:00:10;;;;;;;3.70;2.00;;;2.80;99.90;;;;;;4875044;29;20043;-73
2022/03/06 08:02:36;;;;;;;3.72;1.88;;;3.00;99.90;;;;;;4875023;29;20406;-75
2022/03/06 08:05:03;;;;;;;4.07;1.92;;;3.20;99.90;;;;;;4877876;29;20346;-75
2022/03/06 08:07:29;;;;;;;;;;;3.20;99.90;;;;;;4874636;29;20759;-74
2022/03/06 08:09:54;;;;;;;2.90;1.75;;;3.20;99.90;;;;;;4881708;29;20014;-75
2022/03/06 08:12:25;;;;;;;3.10;1.80;;;3.40;99.90;;;;;;4861877;29;20116;-74
2022/03/06 08:14:51;;;;;;;6.25;2.00;;;3.60;99.90;;;;;;4873971;29;20486;-75
2022/03/06 08:17:17;;;;;;;2.85;1.60;;;3.70;99.90;;;;;;4874961;29;20044;-75
2022/03/06 08:19:43;;;;;;;3.78;1.88;;;3.70;99.90;;;;;;4876703;29;20129;-74
2022/03/06 08:22:08;;;;;;;3.53;1.90;;;3.70;99.90;;;;;;4877250;29;20576;-75
2022/03/06 08:24:34;;;;;;;4.00;1.70;;;3.60;99.90;;;;;;4871255;29;20502;-74
2022/03/06 08:27:00;;;;;;;3.70;1.70;;;3.60;99.90;;;;;;4874100;29;20045;-75
2022/03/06 08:29:26;;;;;;;3.37;1.80;;;3.60;99.90;;;;;;4874115;29;20053;-75
2022/03/06 08:31:51;;;;;;;3.28;1.83;;;3.60;99.90;;;;;;4864708;29;20052;-75
2022/03/06 08:34:17;;;;;;;3.28;1.80;;;3.60;99.90;;;;;;4878527;29;20120;-74
2022/03/06 08:36:43;;;;;;;4.00;1.73;;;3.50;99.90;;;;;;4859136;29;20083;-74
2022/03/06 08:39:08;;;;;;;3.85;2.00;;;3.50;99.90;;;;;;4858683;29;20057;-75
2022/03/06 08:41:34;;;;;;;5.43;1.80;;;3.50;99.90;;;;;;4872972;29;20097;-73
2022/03/06 08:44:00;;;;;;;3.38;2.20;;;3.50;99.90;;;;;;4871538;29;20799;-73
2022/03/06 08:46:25;;;;;;;3.97;1.70;;;3.50;99.90;;;;;;4874736;29;20051;-74
2022/03/06 08:48:51;;;;;;;3.60;1.70;;;3.50;99.90;;;;;;4846511;29;20161;-74
2022/03/06 08:51:17;;;;;;;2.67;1.70;;;3.60;99.90;;;;;;4875650;29;20074;-75
2022/03/06 08:53:43;;;;;;;3.13;1.70;;;3.60;99.90;;;;;;4876400;29;20476;-75
2022/03/06 08:56:08;;;;;;;3.38;1.75;;;3.60;99.90;;;;;;4865011;29;20063;-74
2022/03/06 08:58:35;;;;;;;3.83;1.77;;;3.70;99.90;;;;;;4876380;29;20097;-74
2022/03/06 09:01:00;;;;;;;;;;;3.60;99.90;;;;;;4859235;29;20120;-74
2022/03/06 09:03:26;;;;;;;3.80;1.70;;;3.60;99.90;;;;;;4876228;29;19931;-74
2022/03/06 09:05:52;;;;;;;2.50;1.55;;;3.60;99.90;;;;;;4874429;29;20042;-74
2022/03/06 09:08:17;;;;;;;3.38;1.45;;;3.70;99.90;;;;;;4854239;29;20030;-74
2022/03/06 09:10:43;;;;;;;3.00;1.90;;;3.60;99.50;;;;;;4874725;29;20082;-75
2022/03/06 09:13:09;;;;;;;3.83;1.90;;;3.70;99.90;;;;;;4854964;29;21109;-73
2022/03/06 09:15:36;;;;;;;2.67;1.70;;;3.70;99.10;;;;;;4858665;29;20083;-73
2022/03/06 09:18:03;;;;;;;3.50;1.40;;;3.70;99.90;;;;;;4874881;29;20052;-74
2022/03/06 09:20:28;;;;;;;;;;;3.80;99.90;;;;;;4855942;29;20104;-74
2022/03/06 09:22:54;;;;;;;7.63;2.05;;;3.80;99.30;;;;;;4875023;29;19928;-74
2022/03/06 09:25:20;;;;;;;3.83;2.03;;;3.90;99.20;;;;;;4885991;29;20076;-74
2022/03/06 09:27:52;;;;;;;4.55;1.80;;;3.90;99.50;;;;;;4886121;29;20167;-73
2022/03/06 09:30:18;;;;;;;3.42;1.70;;;3.80;99.50;;;;;;4867805;29;20532;-74
2022/03/06 09:32:44;;;;;;;3.35;1.88;;;3.80;99.60;;;;;;4879849;29;20049;-73
2022/03/06 09:35:10;;;;;;;4.63;2.10;;;3.90;99.90;;;;;;4871966;29;20149;-74
2022/03/06 09:37:36;;;;;;;2.83;1.67;;;3.80;99.90;;;;;;4856527;29;20117;-74
2022/03/06 09:40:04;;;;;;;6.25;2.20;;;3.90;99.90;;;;;;4860430;29;20568;-74
2022/03/06 09:42:30;;;;;;;4.55;1.88;;;3.90;99.80;;;;;;4859531;29;20128;-72
2022/03/06 09:44:56;;;;;;;2.70;1.80;;;4.00;99.90;;;;;;4856351;29;20120;-74
2022/03/06 09:47:24;;;;;;;4.95;1.90;;;4.00;99.80;;;;;;4861081;29;20845;-74
2022/03/06 09:49:50;;;;;;;5.63;2.35;;;4.00;99.90;;;;;;4844109;29;20044;-74
2022/03/06 09:52:16;;;;;;;4.10;2.10;;;4.10;99.90;;;;;;4859622;29;20044;-74
2022/03/06 09:54:42;;;;;;;3.28;1.83;;;4.20;99.90;;;;;;4846253;29;20144;-74
2022/03/06 09:57:07;;;;;;;4.82;2.00;;;4.30;99.90;;;;;;4874171;29;20127;-73
2022/03/06 09:59:34;;;;;;;4.53;2.42;;;4.30;99.90;;;;;;4859470;29;20463;-74
2022/03/06 10:02:07;;;;;;;2.95;2.00;;;4.50;99.90;;;;;;4838519;29;20095;-74
2022/03/06 10:04:34;;;;;;;3.08;2.10;;;4.70;99.10;;;;;;4841590;29;20041;-74
2022/03/06 10:07:04;;;;;;;3.63;2.10;;;4.60;98.90;;;;;;4849399;29;20116;-74
2022/03/06 10:09:41;;;;;;;4.68;2.00;;;4.70;99.90;;;;;;4876178;29;20049;-75
2022/03/06 10:12:22;;;;;;;;;;;4.90;99.10;;;;;;4845419;29;20040;-73
2022/03/06 10:14:50;;;;;;;3.35;2.20;;;5.00;98.90;;;;;;4860072;29;19923;-73
2022/03/06 10:17:21;;;;;;;5.60;2.13;;;5.10;99.10;;;;;;4832843;29;20044;-73
2022/03/06 10:19:55;;;;;;;3.13;1.90;;;5.10;98.00;;;;;;4855164;29;20073;-73
2022/03/06 10:22:27;;;;;;;5.18;2.08;;;5.10;98.90;;;;;;4855372;29;20052;-73
2022/03/06 10:25:02;;;;;;;3.55;2.03;;;5.10;97.90;;;;;;4857105;29;20497;-74
2022/03/06 10:27:47;;;;;;;4.63;2.60;;;5.10;98.40;;;;;;4856617;29;20057;-73
2022/03/06 10:30:32;;;;;;;4.03;2.28;;;5.30;98.70;;;;;;4841711;29;20038;-74
2022/03/06 10:33:07;;;;;;;4.38;2.20;;;5.30;99.00;;;;;;4859107;29;20040;-73
2022/03/06 10:35:44;;;;;;;4.18;2.30;;;5.30;98.80;;;;;;4859388;29;20144;-73
2022/03/06 10:38:36;;;;;;;;;;;5.30;98.60;;;;;;4843637;29;20061;-73
2022/03/06 10:41:09;;;;;;;4.15;2.38;;;5.30;98.90;;;;;;4856254;29;20344;-73
2022/03/06 10:43:35;;;;;;;5.72;2.15;;;5.40;98.80;;;;;;4856783;29;20148;-69
2022/03/06 10:46:17;;;;;;;5.95;2.15;;;5.50;98.30;;;;;;4857895;29;20045;-70
2022/03/06 10:48:55;;;;;;;3.45;2.17;;;5.50;98.20;;;;;;4842589;29;20136;-69
2022/03/06 10:51:21;;;;;;;4.70;2.33;;;5.50;98.70;;;;;;4872555;29;20041;-69
2022/03/06 10:53:58;;;;;;;4.53;2.28;;;5.60;98.00;;;;;;4844069;29;20068;-69
2022/03/06 10:56:25;;;;;;;;;;;5.70;98.80;;;;;;4859299;29;20072;-74
2022/03/06 10:58:51;;;;;;;4.00;2.27;;;5.90;98.90;;;;;;4843812;29;19920;-73
2022/03/06 11:01:23;;;;;;;2.97;1.90;;;6.10;98.70;;;;;;4862197;29;20293;-73
2022/03/06 11:03:50;;;;;;;4.75;2.30;;;6.50;99.00;;;;;;4863011;29;20091;-73
2022/03/06 11:06:21;;;;;;;4.22;2.13;;;6.70;98.40;;;;;;4840894;29;20506;-73
2022/03/06 11:08:47;;;;;;;3.95;1.88;;;6.90;98.90;;;;;;4859668;29;20135;-74
2022/03/06 11:11:13;;;;;;;4.13;2.40;;;6.90;97.40;;;;;;4844338;29;20075;-74
2022/03/06 11:13:39;;;;;;;4.88;2.15;;;7.10;97.00;;;;;;4857261;29;20510;-74
2022/03/06 11:16:05;;;;;;;3.97;2.00;;;7.20;96.20;;;;;;4857911;29;20588;-74
2022/03/06 11:18:32;;;;;;;4.78;2.22;;;7.30;96.00;;;;;;4856931;29;20117;-74
2022/03/06 11:21:00;;;;;;;5.57;2.28;;;7.40;96.10;;;;;;4862155;29;20512;-74
2022/03/06 11:23:43;;;;;;;4.78;2.22;;;7.60;96.50;;;;;;4848919;29;20049;-74
2022/03/06 11:26:17;;;;;;;3.22;1.90;;;7.30;95.40;;;;;;4854930;29;20053;-74
2022/03/06 11:29:22;;;;;;;3.35;2.28;;;7.10;95.50;;;;;;4859022;29;20049;-74
2022/03/06 11:31:53;;;;;;;3.47;2.40;;;7.00;95.60;;;;;;4856167;29;20056;-74
2022/03/06 11:34:28;;;;;;;4.95;2.53;;;6.90;96.40;;;;;;4857505;29;20041;-74
2022/03/06 11:36:55;;;;;;;4.68;2.10;;;6.80;96.60;;;;;;4867551;29;20068;-74
2022/03/06 11:39:30;;;;;;;3.72;1.98;;;6.90;96.20;;;;;;4874095;29;20056;-74
2022/03/06 11:41:57;;;;;;;3.60;2.10;;;6.90;96.80;;;;;;4858925;29;20056;-73
2022/03/06 11:44:33;;;;;;;;;;;7.00;96.60;;;;;;4840577;29;20045;-73
2022/03/06 11:47:00;;;;;;;4.13;1.90;;;6.80;96.50;;;;;;4841820;29;19924;-73
2022/03/06 11:49:36;;;;;;;3.47;1.90;;;6.90;97.20;;;;;;4871550;29;20041;-73
2022/03/06 11:52:33;;;;;;;4.03;2.23;;;7.00;98.10;;;;;;4871156;29;20046;-73
2022/03/06 11:54:59;;;;;;;4.50;2.25;;;7.00;97.20;;;;;;4867526;29;20117;-74
2022/03/06 11:57:43;;;;;;;4.43;2.50;;;6.90;97.20;;;;;;4873486;29;20057;-73
2022/03/06 12:00:15;;;;;;;4.25;2.08;;;6.80;96.70;;;;;;4873986;29;20045;-74
2022/03/06 12:02:49;;;;;;;3.30;2.10;;;6.70;98.00;;;;;;4858620;29;20140;-75
2022/03/06 12:05:16;;;;;;;3.55;2.10;;;6.60;98.10;;;;;;4856488;29;20051;-75
2022/03/06 12:07:42;;;;;;;2.60;2.13;;;6.80;98.60;;;;;;4873151;29;20067;-75
2022/03/06 12:10:09;;;;;;;;;;;6.80;98.10;;;;;;4859413;29;20799;-75
2022/03/06 12:12:35;;;;;;;3.85;1.83;;;6.70;97.80;;;;;;4874364;29;19940;-74
2022/03/06 12:15:16;;;;;;;3.38;2.00;;;6.90;98.30;;;;;;4874011;29;20037;-75
2022/03/06 12:17:44;;;;;;;4.32;2.30;;;7.00;98.60;;;;;;4858728;29;20055;-74
2022/03/06 12:20:13;;;;;;;3.38;2.20;;;7.10;98.40;;;;;;4874415;29;20041;-74
2022/03/06 12:22:48;;;;;;;4.82;2.00;;;7.20;99.00;;;;;;4871325;29;20049;-74
2022/03/06 12:25:14;;;;;;;3.67;1.95;;;7.00;97.10;;;;;;4867664;29;20085;-73
2022/03/06 12:28:02;;;;;;;4.47;1.95;;;6.90;98.20;;;;;;4873588;29;20129;-74
2022/03/06 12:30:29;;;;;;;3.45;1.92;;;6.90;98.20;;;;;;4872282;29;20088;-75
2022/03/06 12:32:55;;;;;;;5.57;2.08;;;7.00;98.50;;;;;;4877965;29;20056;-75
2022/03/06 12:35:25;;;;;;;3.67;1.90;;;7.10;98.20;;;;;;4862853;29;20041;-75
2022/03/06 12:38:00;;;;;;;3.65;2.28;;;7.00;98.00;;;;;;4862861;29;20509;-75
2022/03/06 12:40:28;;;;;;;2.72;1.80;;;6.80;98.80;;;;;;4870689;29;20045;-75
2022/03/06 12:43:07;;;;;;;3.90;1.80;;;6.70;99.90;;;;;;4877815;29;20140;-75
2022/03/06 12:45:36;;;;;;;3.47;1.90;;;6.90;99.90;;;;;;4855536;29;20049;-75
2022/03/06 12:48:02;;;;;;;3.72;2.03;;;6.80;99.30;;;;;;4859193;29;20082;-75
2022/03/06 12:50:28;;;;;;;5.25;1.90;;;6.60;99.90;;;;;;4875733;29;20369;-75
2022/03/06 12:52:56;;;;;;;3.47;2.00;;;6.60;99.90;;;;;;4876611;29;20144;-76
2022/03/06 12:55:23;;;;;;;3.35;2.00;;;6.80;99.90;;;;;;4875150;29;20061;-74
2022/03/06 12:57:54;;;;;;;4.47;2.08;;;7.00;99.90;;;;;;4879133;29;20052;-74
2022/03/06 13:00:31;;;;;;;4.20;2.00;;;7.30;99.90;;;;;;4880427;29;20190;-74
2022/03/06 13:03:07;;;;;;;5.53;2.10;;;7.30;99.40;;;;;;4856902;29;20060;-74